Alaska Titan — WDE4789 — position and weather

sailwx.info

Track history (hours):
 
Tides and Currents Weather Stations Pressure Air Temp Water Temp Dewpoint Dewpoint Depression Visibility Wind Speed Wind Dir Waves Ship Positions

Alaska Titan

Owner: WESTERN TOWBOAT CO, Seattle, WA. More information available from US FCC via Universal Licensing System and Coast Guard Vessel Documentation Center.

Last reported at 2016-Aug-30 12:00 UTC. Time now 2016-Aug-30 17:04 UTC.
Position N 59°42' W 145°06'.

Length 40 m.

Type: Tow > 200 m length. MMSI: 367357890.

Wind from 300 at 10 knots

Barometer 1015.0 mb
Air temperature 14.9 ° C
Visibility: greater than 10.8 NM

Date/timePositionNaut miles runAvg speedWind from/ knotsBaromVisibWave heightAir tempDewpointWater temp
2016-Aug-30 12:00N 59°42' W 145°06'58 9.6 300 / 101015.010.8 14.9
2016-Aug-30 06:00N 59°24' W 143°18'49 8.2 090 / 81014.010.8 15.5
2016-Aug-30 00:00N 59°06' W 141°48'56 9.3 030 / 101011.810.8 18.2
2016-Aug-29 18:00N 58°48' W 140°06'58 9.7 040 / 251010.510.8 1.516.6
2016-Aug-29 12:00N 58°24' W 138°24'57 9.5 300 / 101010.010.8 15.2
2016-Aug-29 06:00N 57°42' W 137°12'53 8.8 360 / 181009.010.8 0.516.0
2016-Aug-29 00:00N 57°00' W 136°12'   330 / 121010.010.8 0.516.6
2016-Aug-26 15:13N 51°15' W 127°52'6 8.1
2016-Aug-26 14:32N 51°10' W 127°51'7 7.6
2016-Aug-26 13:33N 51°04' W 127°43'8 7.9
2016-Aug-26 12:33N 50°59' W 127°33'8 8.5
2016-Aug-26 11:34N 50°54' W 127°23'11 9.5
2016-Aug-26 10:27N 50°47' W 127°10'71 8.7
2016-Aug-26 02:21N 50°20' W 125°27'7 8.5
2016-Aug-26 01:33N 50°14' W 125°23'9 8.7
2016-Aug-26 00:33N 50°06' W 125°18'8 7.6
2016-Aug-25 23:33N 49°59' W 125°12'7 6.8
2016-Aug-25 22:33N 49°55' W 125°05'7 6.7
2016-Aug-25 21:33N 49°50' W 124°56'7 7.1
2016-Aug-25 20:33N 49°46' W 124°48'10 9.6
2016-Aug-25 19:33N 49°40' W 124°36'10 9.7
2016-Aug-25 18:33N 49°35' W 124°24'10 9.8
2016-Aug-25 17:33N 49°30' W 124°11'10 9.7
2016-Aug-25 16:33N 49°24' W 123°58'10 9.7
2016-Aug-25 15:33N 49°18' W 123°47'9 9.1
2016-Aug-25 14:33N 49°12' W 123°36'8 8.5
2016-Aug-25 13:33N 49°07' W 123°27'8 8.5
2016-Aug-25 12:33N 49°01' W 123°16'9 8.5
2016-Aug-25 11:33N 48°56' W 123°06'8 8.1
2016-Aug-25 10:33N 48°51' W 122°57'8 8.0
2016-Aug-25 09:32N 48°46' W 122°47'7 7.5
2016-Aug-25 08:33N 48°39' W 122°43'7 7.0
2016-Aug-25 07:33N 48°32' W 122°45'9 8.7
2016-Aug-25 06:30N 48°23' W 122°45'15 7.5
2016-Aug-25 04:32N 48°08' W 122°41'8 7.7
2016-Aug-25 03:26N 48°01' W 122°36'7 7.8
2016-Aug-25 02:34N 47°56' W 122°29'9 9.1
2016-Aug-25 01:33N 47°47' W 122°26'9 8.8
2016-Aug-25 00:34N 47°38' W 122°27'5 4.6
2016-Aug-24 23:33N 47°35' W 122°21'1 0.8
2016-Aug-24 22:33N 47°36' W 122°22'4 4.2
2016-Aug-24 21:33N 47°40' W 122°24'1 1.4
2016-Aug-24 20:34N 47°39' W 122°22'0 0.0
2016-Aug-24 19:33N 47°39' W 122°22'0 0.0
2016-Aug-24 18:33N 47°39' W 122°22'0 0.0
2016-Aug-24 17:33N 47°39' W 122°22'0 0.0
2016-Aug-24 16:33N 47°39' W 122°22'0 0.0
2016-Aug-24 15:33N 47°39' W 122°22'0 0.0
2016-Aug-24 14:33N 47°39' W 122°22'  
Track history (hours):
 
Tides and Currents Weather Stations Pressure Air Temp Water Temp Dewpoint Dewpoint Depression Visibility Wind Speed Wind Dir Waves Ship Positions

Alaska Titan

Owner: WESTERN TOWBOAT CO, Seattle, WA. More information available from US FCC via Universal Licensing System and Coast Guard Vessel Documentation Center.

Last reported at 2016-Aug-30 12:00 UTC. Time now 2016-Aug-30 17:04 UTC.
Position N 59°42' W 145°06'.

Length 40 m.

Type: Tow > 200 m length. MMSI: 367357890.

Wind from 300 at 10 knots

Barometer 1015.0 mb
Air temperature 14.9 ° C
Visibility: greater than 10.8 NM

Date/timePositionNaut miles runAvg speedWind from/ knotsBaromVisibWave heightAir tempDewpointWater temp
2016-Aug-30 12:00N 59°42' W 145°06'58 9.6 300 / 101015.010.8 14.9
2016-Aug-30 06:00N 59°24' W 143°18'49 8.2 090 / 81014.010.8 15.5
2016-Aug-30 00:00N 59°06' W 141°48'56 9.3 030 / 101011.810.8 18.2
2016-Aug-29 18:00N 58°48' W 140°06'58 9.7 040 / 251010.510.8 1.516.6
2016-Aug-29 12:00N 58°24' W 138°24'57 9.5 300 / 101010.010.8 15.2
2016-Aug-29 06:00N 57°42' W 137°12'53 8.8 360 / 181009.010.8 0.516.0
2016-Aug-29 00:00N 57°00' W 136°12'   330 / 121010.010.8 0.516.6
2016-Aug-26 15:13N 51°15' W 127°52'6 8.1
2016-Aug-26 14:32N 51°10' W 127°51'7 7.6
2016-Aug-26 13:33N 51°04' W 127°43'8 7.9
2016-Aug-26 12:33N 50°59' W 127°33'8 8.5
2016-Aug-26 11:34N 50°54' W 127°23'11 9.5
2016-Aug-26 10:27N 50°47' W 127°10'71 8.7
2016-Aug-26 02:21N 50°20' W 125°27'7 8.5
2016-Aug-26 01:33N 50°14' W 125°23'9 8.7
2016-Aug-26 00:33N 50°06' W 125°18'8 7.6
2016-Aug-25 23:33N 49°59' W 125°12'7 6.8
2016-Aug-25 22:33N 49°55' W 125°05'7 6.7
2016-Aug-25 21:33N 49°50' W 124°56'7 7.1
2016-Aug-25 20:33N 49°46' W 124°48'10 9.6
2016-Aug-25 19:33N 49°40' W 124°36'10 9.7
2016-Aug-25 18:33N 49°35' W 124°24'10 9.8
2016-Aug-25 17:33N 49°30' W 124°11'10 9.7
2016-Aug-25 16:33N 49°24' W 123°58'10 9.7
2016-Aug-25 15:33N 49°18' W 123°47'9 9.1
2016-Aug-25 14:33N 49°12' W 123°36'8 8.5
2016-Aug-25 13:33N 49°07' W 123°27'8 8.5
2016-Aug-25 12:33N 49°01' W 123°16'9 8.5
2016-Aug-25 11:33N 48°56' W 123°06'8 8.1
2016-Aug-25 10:33N 48°51' W 122°57'8 8.0
2016-Aug-25 09:32N 48°46' W 122°47'7 7.5
2016-Aug-25 08:33N 48°39' W 122°43'7 7.0
2016-Aug-25 07:33N 48°32' W 122°45'9 8.7
2016-Aug-25 06:30N 48°23' W 122°45'15 7.5
2016-Aug-25 04:32N 48°08' W 122°41'8 7.7
2016-Aug-25 03:26N 48°01' W 122°36'7 7.8
2016-Aug-25 02:34N 47°56' W 122°29'9 9.1
2016-Aug-25 01:33N 47°47' W 122°26'9 8.8
2016-Aug-25 00:34N 47°38' W 122°27'5 4.6
2016-Aug-24 23:33N 47°35' W 122°21'1 0.8
2016-Aug-24 22:33N 47°36' W 122°22'4 4.2
2016-Aug-24 21:33N 47°40' W 122°24'1 1.4
2016-Aug-24 20:34N 47°39' W 122°22'0 0.0
2016-Aug-24 19:33N 47°39' W 122°22'0 0.0
2016-Aug-24 18:33N 47°39' W 122°22'0 0.0
2016-Aug-24 17:33N 47°39' W 122°22'0 0.0
2016-Aug-24 16:33N 47°39' W 122°22'0 0.0
2016-Aug-24 15:33N 47°39' W 122°22'0 0.0
2016-Aug-24 14:33N 47°39' W 122°22'  

Dump ship's entire track history